Time;durP1;ratioP1;P1;durP2;ratioP2;P2;SDS_P1;SDS_P2;PMS_P1;PMS_P2;Temp;Humidity;BMP_temperature;BMP_pressure;BME280_temperature;BME280_humidity;BME280_pressure;Samples;Min_cycle;Max_cycle;Signal;HPM_P1;HPM_P2
2022/11/10 00:03:33;;;;;;;;;;;10.30;99.90;;;;;;8400521;28;19931;-80
2022/11/10 00:07:35;;;;;;;;;;;10.30;99.90;;;;;;8415177;28;19924;-80
2022/11/10 00:11:37;;;;;;;;;;;10.30;99.90;;;;;;8395663;28;19931;-79
2022/11/10 00:19:59;;;;;;;;;;;10.30;99.90;;;;;;8414229;28;19924;-79
2022/11/10 00:24:02;;;;;;;;;;;10.30;99.90;;;;;;8398565;28;19932;-79
2022/11/10 00:28:04;;;;;;;;;;;10.30;99.90;;;;;;8396081;28;20027;-80
2022/11/10 00:32:06;;;;;;;;;;;10.20;99.90;;;;;;8416485;28;20355;-79
2022/11/10 00:36:08;;;;;;;;;;;10.20;99.90;;;;;;8411877;28;19924;-80
2022/11/10 00:40:10;;;;;;;;;;;10.20;99.90;;;;;;8416508;28;20532;-80
2022/11/10 00:44:11;;;;;;;;;;;10.20;99.90;;;;;;8417119;28;20010;-80
2022/11/10 00:48:13;;;;;;;;;;;10.20;99.90;;;;;;8411133;28;20409;-79
2022/11/10 00:52:15;;;;;;;;;;;10.20;99.90;;;;;;8390733;28;20022;-80
2022/11/10 00:56:17;;;;;;;;;;;10.20;99.90;;;;;;8409076;28;19928;-80
2022/11/10 01:00:18;;;;;;;;;;;10.20;99.90;;;;;;8422038;28;20275;-80
2022/11/10 01:04:20;;;;;;;;;;;10.20;99.90;;;;;;8416942;28;19977;-80
2022/11/10 01:08:22;;;;;;;;;;;10.20;99.90;;;;;;8417007;28;19924;-79
2022/11/10 01:12:26;;;;;;;;;;;10.20;99.90;;;;;;8420218;28;20361;-80
2022/11/10 01:16:29;;;;;;;;;;;10.20;99.90;;;;;;8401871;28;20303;-79
2022/11/10 01:20:34;;;;;;;;;;;10.20;99.90;;;;;;8421154;28;19968;-79
2022/11/10 01:24:36;;;;;;;;;;;10.10;99.90;;;;;;8394014;28;19924;-79
2022/11/10 01:28:37;;;;;;;;;;;10.10;99.90;;;;;;8409757;28;20018;-79
2022/11/10 01:32:39;;;;;;;;;;;10.10;99.90;;;;;;8416198;28;20375;-79
2022/11/10 01:36:41;;;;;;;;;;;10.00;99.90;;;;;;8392060;28;20392;-78
2022/11/10 01:40:42;;;;;;;;;;;10.00;99.90;;;;;;8419062;28;20347;-79
2022/11/10 01:45:04;;;;;;;;;;;10.00;99.90;;;;;;8421590;28;20001;-79
2022/11/10 01:49:06;;;;;;;;;;;10.00;99.90;;;;;;8402295;28;19950;-79
2022/11/10 01:53:10;;;;;;;;;;;10.00;99.90;;;;;;8424208;28;19976;-79
2022/11/10 01:57:12;;;;;;;;;;;9.90;99.90;;;;;;8403307;28;20294;-79
2022/11/10 02:01:14;;;;;;;;;;;9.90;99.90;;;;;;8408156;28;20019;-79
2022/11/10 02:05:16;;;;;;;;;;;9.90;99.90;;;;;;8412579;28;19930;-79
2022/11/10 02:09:18;;;;;;;;;;;9.90;99.90;;;;;;8413657;28;19932;-78
2022/11/10 02:13:19;;;;;;;;;;;9.90;99.90;;;;;;8415185;28;19934;-79
2022/11/10 02:17:21;;;;;;;;;;;9.90;99.90;;;;;;8412579;28;19925;-79
2022/11/10 02:21:23;;;;;;;;;;;9.90;99.90;;;;;;8420613;28;19924;-79
2022/11/10 02:25:28;;;;;;;;;;;9.80;99.90;;;;;;8395213;28;20375;-79
2022/11/10 02:29:30;;;;;;;;;;;9.90;99.90;;;;;;8423495;28;19966;-79
2022/11/10 02:33:31;;;;;;;;;;;9.90;99.90;;;;;;8403574;28;19932;-80
2022/11/10 02:37:33;;;;;;;;;;;9.90;99.90;;;;;;8420453;28;20015;-80
2022/11/10 02:41:35;;;;;;;;;;;9.90;99.90;;;;;;8423725;28;20276;-80
2022/11/10 02:45:45;;;;;;;;;;;9.90;99.90;;;;;;8398008;28;20272;-79
2022/11/10 02:49:47;;;;;;;;;;;9.90;99.90;;;;;;8413978;28;19931;-79
2022/11/10 02:53:49;;;;;;;;;;;9.80;99.90;;;;;;8399615;28;20440;-79
2022/11/10 02:57:50;;;;;;;;;;;9.80;99.90;;;;;;8419667;28;19924;-80
2022/11/10 03:01:52;;;;;;;;;;;9.80;99.90;;;;;;8415889;28;19974;-80
2022/11/10 03:05:53;;;;;;;;;;;9.80;99.90;;;;;;8419257;28;20406;-80
2022/11/10 03:20:08;;;;;;;;;;;9.90;99.90;;;;;;8403953;28;20028;-80
2022/11/10 03:24:10;;;;;;;;;;;9.90;99.90;;;;;;8414575;28;20233;-79
2022/11/10 03:28:12;;;;;;;;;;;9.80;99.90;;;;;;8412621;28;19971;-79
2022/11/10 03:32:14;;;;;;;;;;;9.90;99.90;;;;;;8414873;28;19948;-81
2022/11/10 03:36:15;;;;;;;;;;;9.80;99.90;;;;;;8416163;28;19928;-80
2022/11/10 03:40:17;;;;;;;;;;;9.80;99.90;;;;;;8402729;28;19942;-80
2022/11/10 03:44:18;;;;;;;;;;;9.90;99.90;;;;;;8411731;28;19982;-80
2022/11/10 03:48:20;;;;;;;;;;;9.90;99.90;;;;;;8419725;28;20023;-80
2022/11/10 03:52:22;;;;;;;;;;;9.90;99.90;;;;;;8420024;28;19930;-80
2022/11/10 03:56:23;;;;;;;;;;;9.90;99.90;;;;;;8388775;28;19924;-80
2022/11/10 04:00:25;;;;;;;;;;;9.90;99.90;;;;;;8418050;28;20347;-80
2022/11/10 04:08:59;;;;;;;;;;;9.80;99.90;;;;;;8407073;28;19986;-79
2022/11/10 04:17:22;;;;;;;;;;;9.80;99.90;;;;;;8414096;28;19924;-79
2022/11/10 04:21:23;;;;;;;;;;;9.80;99.90;;;;;;8403454;28;19945;-80
2022/11/10 04:25:25;;;;;;;;;;;9.80;99.90;;;;;;8401129;28;20257;-79
2022/11/10 04:29:26;;;;;;;;;;;9.80;99.90;;;;;;8417184;28;20023;-79
2022/11/10 04:33:28;;;;;;;;;;;9.80;99.90;;;;;;8416297;28;19936;-79
2022/11/10 04:37:29;;;;;;;;;;;9.80;99.90;;;;;;8416811;28;19924;-79
2022/11/10 04:41:31;;;;;;;;;;;9.80;99.90;;;;;;8418035;28;20533;-80
2022/11/10 04:45:33;;;;;;;;;;;9.80;99.90;;;;;;8417880;28;19932;-79
2022/11/10 04:49:35;;;;;;;;;;;9.80;99.90;;;;;;8409733;28;20306;-78
2022/11/10 04:53:36;;;;;;;;;;;9.80;99.90;;;;;;8415241;28;19975;-79
2022/11/10 04:57:38;;;;;;;;;;;9.70;99.90;;;;;;8397541;28;20442;-79
2022/11/10 05:01:40;;;;;;;;;;;9.80;99.90;;;;;;8422209;28;20031;-79
2022/11/10 05:05:41;;;;;;;;;;;9.80;99.90;;;;;;8391102;28;20027;-79
2022/11/10 05:09:43;;;;;;;;;;;9.70;99.90;;;;;;8422072;28;19930;-79
2022/11/10 05:13:45;;;;;;;;;;;9.70;99.90;;;;;;8402353;28;19939;-79
2022/11/10 05:17:49;;;;;;;;;;;9.70;99.90;;;;;;8425354;28;19951;-79
2022/11/10 05:21:51;;;;;;;;;;;9.70;99.90;;;;;;8425911;28;20398;-79
2022/11/10 05:25:53;;;;;;;;;;;9.70;99.90;;;;;;8413437;28;20359;-80
2022/11/10 05:29:55;;;;;;;;;;;9.60;99.90;;;;;;8405945;28;19928;-79
2022/11/10 05:33:57;;;;;;;;;;;9.60;99.90;;;;;;8412712;28;20023;-79
2022/11/10 05:37:58;;;;;;;;;;;9.60;99.90;;;;;;8419855;28;20019;-80
2022/11/10 05:42:00;;;;;;;;;;;9.60;99.90;;;;;;8424546;28;20362;-79
2022/11/10 05:46:02;;;;;;;;;;;9.60;99.90;;;;;;8416916;28;19924;-79
2022/11/10 05:50:04;;;;;;;;;;;9.60;99.90;;;;;;8412957;28;20018;-79
2022/11/10 05:54:06;;;;;;;;;;;9.50;99.90;;;;;;8418599;28;19938;-79
2022/11/10 05:58:07;;;;;;;;;;;9.50;99.90;;;;;;8405482;28;20302;-79
2022/11/10 06:02:09;;;;;;;;;;;9.40;99.90;;;;;;8419439;28;19928;-80
2022/11/10 06:06:11;;;;;;;;;;;9.40;99.90;;;;;;8418157;28;19939;-79
2022/11/10 06:10:12;;;;;;;;;;;9.40;99.90;;;;;;8421067;28;20299;-79
2022/11/10 06:14:14;;;;;;;;;;;9.40;99.90;;;;;;8417091;28;20393;-79
2022/11/10 06:18:16;;;;;;;;;;;9.40;99.90;;;;;;8426885;28;20310;-79
2022/11/10 06:22:17;;;;;;;;;;;9.40;99.90;;;;;;8409574;28;20363;-79
2022/11/10 06:26:19;;;;;;;;;;;9.40;99.90;;;;;;8423779;28;19928;-79
2022/11/10 06:30:21;;;;;;;;;;;9.40;99.90;;;;;;8405920;28;19924;-79
2022/11/10 06:34:23;;;;;;;;;;;9.40;99.90;;;;;;8402340;28;19931;-79
2022/11/10 06:38:24;;;;;;;;;;;9.30;99.90;;;;;;8406980;28;20371;-80
2022/11/10 06:42:26;;;;;;;;;;;9.30;99.90;;;;;;8402468;28;19966;-79
2022/11/10 06:46:27;;;;;;;;;;;9.30;99.90;;;;;;8397500;28;20360;-79
2022/11/10 06:50:29;;;;;;;;;;;9.30;99.90;;;;;;8419910;28;19924;-79
2022/11/10 06:54:31;;;;;;;;;;;9.30;99.90;;;;;;8408628;28;20031;-79
2022/11/10 06:58:32;;;;;;;;;;;9.40;99.90;;;;;;8397502;28;19930;-76
2022/11/10 07:02:34;;;;;;;;;;;9.40;99.90;;;;;;8407586;28;20015;-77
2022/11/10 07:06:36;;;;;;;;;;;9.40;99.90;;;;;;8409900;28;19935;-76
2022/11/10 07:10:38;;;;;;;;;;;9.40;99.90;;;;;;8427268;28;19943;-77
2022/11/10 07:14:39;;;;;;;;;;;9.50;99.90;;;;;;8421114;28;19924;-76
2022/11/10 07:18:41;;;;;;;;;;;9.50;99.90;;;;;;8421579;28;20011;-75
2022/11/10 07:22:42;;;;;;;;;;;9.50;99.90;;;;;;8418259;28;19932;-76
2022/11/10 07:26:44;;;;;;;;;;;9.60;99.90;;;;;;8417159;28;19930;-77
2022/11/10 07:30:46;;;;;;;;;;;9.60;99.90;;;;;;8416028;28;19975;-77
2022/11/10 07:34:47;;;;;;;;;;;9.60;99.90;;;;;;8415331;28;20401;-77
2022/11/10 07:38:49;;;;;;;;;;;9.60;99.90;;;;;;8416186;28;20011;-77
2022/11/10 07:42:50;;;;;;;;;;;9.70;99.90;;;;;;8416116;28;20390;-76
2022/11/10 07:46:52;;;;;;;;;;;9.70;99.90;;;;;;8423751;28;19930;-76
2022/11/10 07:50:54;;;;;;;;;;;9.80;99.90;;;;;;8409954;28;19928;-77
2022/11/10 07:54:55;;;;;;;;;;;9.90;99.90;;;;;;8406942;28;20356;-76
2022/11/10 07:58:57;;;;;;;;;;;9.90;99.90;;;;;;8406980;28;20294;-77
2022/11/10 08:03:05;;;;;;;;;;;10.00;99.90;;;;;;8403122;28;19931;-76
2022/11/10 08:07:07;;;;;;;;;;;10.00;99.90;;;;;;8423586;28;19924;-76
2022/11/10 08:11:09;;;;;;;;;;;10.10;99.90;;;;;;8425273;28;19924;-76
2022/11/10 08:15:10;;;;;;;;;;;10.20;99.90;;;;;;8404085;28;20372;-76
2022/11/10 08:19:12;;;;;;;;;;;10.30;99.90;;;;;;8405215;28;19978;-76
2022/11/10 08:23:14;;;;;;;;;;;10.40;99.90;;;;;;8415204;28;19934;-77
2022/11/10 08:27:16;;;;;;;;;;;10.50;99.90;;;;;;8415254;28;19978;-76
2022/11/10 08:31:17;;;;;;;;;;;10.60;99.90;;;;;;8419682;28;20065;-77
2022/11/10 08:35:19;;;;;;;;;;;10.80;99.90;;;;;;8415037;28;19924;-77
2022/11/10 08:39:20;;;;;;;;;;;10.90;99.90;;;;;;8413022;28;19924;-77
2022/11/10 08:43:38;;;;;;;;;;;11.00;99.90;;;;;;8397945;28;19925;-77
2022/11/10 08:47:40;;;;;;;;;;;11.20;99.90;;;;;;8418547;28;20018;-77
2022/11/10 08:51:42;;;;;;;;;;;11.30;99.90;;;;;;8401079;28;20510;-76
2022/11/10 08:55:44;;;;;;;;;;;11.40;99.90;;;;;;8418697;28;19931;-77
2022/11/10 08:59:45;;;;;;;;;;;11.40;99.90;;;;;;8420098;28;19924;-77
2022/11/10 09:03:47;;;;;;;;;;;11.60;99.90;;;;;;8417192;28;20319;-77
2022/11/10 09:07:49;;;;;;;;;;;11.80;99.90;;;;;;8412564;28;19963;-77
2022/11/10 09:11:50;;;;;;;;;;;12.00;99.90;;;;;;8408780;28;20023;-77
2022/11/10 09:15:52;;;;;;;;;;;12.20;99.90;;;;;;8408521;28;19978;-77
2022/11/10 09:19:53;;;;;;;;;;;12.30;99.90;;;;;;8397480;28;19928;-77
2022/11/10 09:23:55;;;;;;;;;;;12.30;99.90;;;;;;8400076;28;19970;-77
2022/11/10 09:27:57;;;;;;;;;;;12.40;99.90;;;;;;8420502;28;19928;-77
2022/11/10 09:31:58;;;;;;;;;;;12.40;99.90;;;;;;8420474;28;20007;-77
2022/11/10 09:36:00;;;;;;;;;;;12.60;99.90;;;;;;8404329;28;19933;-77
2022/11/10 09:40:02;;;;;;;;;;;12.60;99.90;;;;;;8401591;28;19932;-76
2022/11/10 09:44:14;;;;;;;;;;;12.70;99.90;;;;;;8406530;28;20375;-76
2022/11/10 09:48:21;;;;;;;;;;;12.80;99.90;;;;;;8417190;28;19956;-76
2022/11/10 10:07:42;;;;;;;;;;;13.70;99.90;;;;;;8405285;28;19961;-76
2022/11/10 10:11:46;;;;;;;;;;;14.00;99.90;;;;;;8418873;28;20368;-77
2022/11/10 10:15:54;;;;;;;;;;;14.10;99.90;;;;;;8420282;28;19928;-77
2022/11/10 10:20:12;;;;;;;;;;;14.20;99.90;;;;;;8418269;28;19953;-76
2022/11/10 10:24:18;;;;;;;;;;;14.40;99.90;;;;;;8401888;28;19924;-76
2022/11/10 10:28:37;;;;;;;;;;;14.80;99.90;;;;;;8411446;28;20372;-77
2022/11/10 10:32:38;;;;;;;;;;;15.20;99.90;;;;;;8423221;28;20006;-77
2022/11/10 10:36:40;;;;;;;;;;;15.30;99.90;;;;;;8421499;28;19979;-76
2022/11/10 10:40:42;;;;;;;;;;;15.40;99.90;;;;;;8418164;28;19932;-76
2022/11/10 10:45:03;;;;;;;;;;;15.80;99.90;;;;;;8397120;28;19971;-77
2022/11/10 10:49:13;;;;;;;;;;;16.30;99.90;;;;;;8414482;28;19993;-77
2022/11/10 10:53:31;;;;;;;;;;;16.60;99.90;;;;;;8422869;28;19995;-77
2022/11/10 10:57:33;;;;;;;;;;;16.90;99.90;;;;;;8398013;28;20047;-77
2022/11/10 11:01:38;;;;;;;;;;;16.90;99.90;;;;;;8406878;28;20426;-76
2022/11/10 11:05:40;;;;;;;;;;;17.20;99.90;;;;;;8397304;28;19931;-76
2022/11/10 11:09:42;;;;;;;;;;;17.30;99.90;;;;;;8390019;28;19931;-77
2022/11/10 11:13:44;;;;;;;;;;;17.20;99.90;;;;;;8396647;28;19924;-76
2022/11/10 11:18:02;;;;;;;;;;;16.80;99.90;;;;;;8403056;28;19934;-76
2022/11/10 11:22:08;;;;;;;;;;;16.40;99.90;;;;;;8405321;28;19971;-76
2022/11/10 11:26:18;;;;;;;;;;;16.00;99.90;;;;;;8389975;28;20035;-76
2022/11/10 11:30:21;;;;;;;;;;;15.80;99.90;;;;;;8380253;28;19932;-77
2022/11/10 11:34:41;;;;;;;;;;;15.70;99.90;;;;;;8379462;28;19935;-77
2022/11/10 11:38:51;;;;;;;;;;;15.70;99.90;;;;;;8377843;28;20307;-77
2022/11/10 11:43:01;;;;;;;;;;;15.80;99.90;;;;;;8393766;28;20039;-76
2022/11/10 11:47:18;;;;;;;;;;;15.70;99.90;;;;;;8391665;28;20369;-77
2022/11/10 11:51:22;;;;;;;;;;;15.60;99.90;;;;;;8391587;28;20310;-77
2022/11/10 11:55:27;;;;;;;;;;;15.70;99.90;;;;;;8390129;28;19924;-76
2022/11/10 11:59:52;;;;;;;;;;;15.60;99.90;;;;;;8394198;28;20395;-77
2022/11/10 12:04:26;;;;;;;;;;;15.50;99.90;;;;;;8370628;28;19924;-76
2022/11/10 12:08:30;;;;;;;;;;;15.50;99.90;;;;;;8343503;28;20289;-77
2022/11/10 12:12:38;;;;;;;;;;;15.50;99.90;;;;;;8399158;28;20403;-76
2022/11/10 12:16:42;;;;;;;;;;;15.50;99.90;;;;;;8395001;28;20023;-76
2022/11/10 12:21:02;;;;;;;;;;;15.50;99.90;;;;;;8391303;28;19934;-77
2022/11/10 12:25:13;;;;;;;;;;;15.40;99.90;;;;;;8376333;28;19925;-76
2022/11/10 12:29:24;;;;;;;;;;;15.40;99.90;;;;;;8397461;28;19979;-76
2022/11/10 12:33:46;;;;;;;;;;;15.40;99.90;;;;;;8397192;28;19952;-77
2022/11/10 12:37:51;;;;;;;;;;;15.40;99.90;;;;;;8394844;28;19939;-76
2022/11/10 12:42:01;;;;;;;;;;;15.40;99.90;;;;;;8402808;28;19924;-77
2022/11/10 12:46:05;;;;;;;;;;;15.40;99.90;;;;;;8392794;28;19931;-77
2022/11/10 12:50:25;;;;;;;;;;;15.40;99.90;;;;;;8383607;28;19924;-76
2022/11/10 12:54:27;;;;;;;;;;;15.40;99.90;;;;;;8394285;28;19928;-77
2022/11/10 12:58:29;;;;;;;;;;;15.40;99.90;;;;;;8398211;28;20043;-75
2022/11/10 13:02:33;;;;;;;;;;;15.40;99.90;;;;;;8397923;28;20331;-75
2022/11/10 13:06:35;;;;;;;;;;;15.40;99.90;;;;;;8400029;28;20027;-74
2022/11/10 13:10:45;;;;;;;;;;;15.40;99.90;;;;;;8401006;28;19931;-74
2022/11/10 13:14:47;;;;;;;;;;;15.40;99.90;;;;;;8400182;28;19947;-74
2022/11/10 13:18:49;;;;;;;;;;;15.40;99.90;;;;;;8402149;28;19932;-74
2022/11/10 13:22:50;;;;;;;;;;;15.40;99.90;;;;;;8382200;28;20375;-75
2022/11/10 13:26:55;;;;;;;;;;;15.40;99.90;;;;;;8404408;28;19957;-74
2022/11/10 13:30:57;;;;;;;;;;;15.40;99.90;;;;;;8409318;28;20398;-74
2022/11/10 13:35:17;;;;;;;;;;;15.40;99.90;;;;;;8398441;28;19924;-74
2022/11/10 13:39:19;;;;;;;;;;;15.50;99.90;;;;;;8383833;28;19930;-75
2022/11/10 13:43:23;;;;;;;;;;;15.70;99.90;;;;;;8379376;28;20295;-75
2022/11/10 13:47:34;;;;;;;;;;;15.80;99.90;;;;;;8398465;28;19928;-75
2022/11/10 13:51:41;;;;;;;;;;;15.80;99.90;;;;;;8403549;28;19924;-75
2022/11/10 13:55:58;;;;;;;;;;;15.80;99.90;;;;;;8397532;28;19925;-75
2022/11/10 14:00:05;;;;;;;;;;;15.70;99.90;;;;;;8396321;28;19932;-74
2022/11/10 14:04:07;;;;;;;;;;;15.60;99.90;;;;;;8400843;28;20260;-75
2022/11/10 14:08:15;;;;;;;;;;;15.50;99.90;;;;;;8398843;28;24198;-75
2022/11/10 14:12:20;;;;;;;;;;;15.30;99.90;;;;;;8393585;28;20112;-75
2022/11/10 14:16:22;;;;;;;;;;;15.30;99.90;;;;;;8398725;28;19931;-74
2022/11/10 14:20:40;;;;;;;;;;;15.30;99.90;;;;;;8383414;28;19931;-75
2022/11/10 14:25:00;;;;;;;;;;;15.30;99.90;;;;;;8400820;28;19925;-75
2022/11/10 14:29:18;;;;;;;;;;;15.30;99.90;;;;;;8398704;28;19947;-75
2022/11/10 14:33:20;;;;;;;;;;;15.40;99.90;;;;;;8393977;28;20523;-75
2022/11/10 14:37:27;;;;;;;;;;;15.50;99.90;;;;;;8396106;28;20237;-75
2022/11/10 14:41:28;;;;;;;;;;;15.60;99.90;;;;;;8394965;28;19928;-74
2022/11/10 14:45:30;;;;;;;;;;;15.70;99.90;;;;;;8379914;28;20729;-75
2022/11/10 14:49:31;;;;;;;;;;;15.60;99.90;;;;;;8400172;28;20298;-75
2022/11/10 14:53:34;;;;;;;;;;;15.60;99.90;;;;;;8397959;28;19940;-75
2022/11/10 14:57:36;;;;;;;;;;;15.90;99.90;;;;;;8402203;28;20381;-75
2022/11/10 15:01:41;;;;;;;;;;;16.20;99.90;;;;;;8392559;28;19939;-75
2022/11/10 15:05:42;;;;;;;;;;;16.30;99.90;;;;;;8394417;28;20279;-75
2022/11/10 15:10:02;;;;;;;;;;;16.30;99.90;;;;;;8399226;28;19924;-75
2022/11/10 15:14:24;;;;;;;;;;;16.20;99.90;;;;;;8390342;28;19924;-75
2022/11/10 15:18:28;;;;;;;;;;;16.00;99.90;;;;;;8400042;28;19974;-75
2022/11/10 15:22:33;;;;;;;;;;;15.60;99.90;;;;;;8390059;28;19939;-75
2022/11/10 15:26:38;;;;;;;;;;;15.30;99.90;;;;;;8392140;28;19929;-75
2022/11/10 15:30:50;;;;;;;;;;;15.10;99.90;;;;;;8390645;28;19932;-75
2022/11/10 15:34:52;;;;;;;;;;;14.90;99.90;;;;;;8401027;28;19936;-77
2022/11/10 15:39:15;;;;;;;;;;;14.70;99.90;;;;;;8396337;28;19935;-77
2022/11/10 15:43:23;;;;;;;;;;;14.60;99.90;;;;;;8385294;28;20416;-77
2022/11/10 15:47:25;;;;;;;;;;;14.50;99.90;;;;;;8397134;28;19935;-77
2022/11/10 15:51:27;;;;;;;;;;;14.40;99.90;;;;;;8390638;28;19931;-77
2022/11/10 15:55:33;;;;;;;;;;;14.30;99.90;;;;;;8387902;28;19928;-77
2022/11/10 15:59:34;;;;;;;;;;;14.20;99.90;;;;;;8393872;28;20903;-77
2022/11/10 16:03:36;;;;;;;;;;;14.10;99.90;;;;;;8396529;28;20004;-77
2022/11/10 16:07:37;;;;;;;;;;;14.00;99.90;;;;;;8394969;28;19929;-77
2022/11/10 16:11:41;;;;;;;;;;;14.00;99.90;;;;;;8393541;28;20681;-77
2022/11/10 16:15:44;;;;;;;;;;;14.00;99.90;;;;;;8385148;28;20375;-77
2022/11/10 16:19:45;;;;;;;;;;;13.90;99.90;;;;;;8393588;28;19931;-76
2022/11/10 16:23:47;;;;;;;;;;;13.80;99.90;;;;;;8392061;28;19939;-77
2022/11/10 16:27:49;;;;;;;;;;;13.70;99.90;;;;;;8392163;28;19931;-76
2022/11/10 16:31:53;;;;;;;;;;;13.70;99.90;;;;;;8395085;28;20303;-77
2022/11/10 16:35:55;;;;;;;;;;;13.60;99.90;;;;;;8395771;28;19932;-77
2022/11/10 16:39:57;;;;;;;;;;;13.50;99.90;;;;;;8386056;28;19932;-77
2022/11/10 16:43:59;;;;;;;;;;;13.50;99.90;;;;;;8405037;28;19962;-77
2022/11/10 16:48:00;;;;;;;;;;;13.40;99.90;;;;;;8394211;28;20263;-76
2022/11/10 16:52:03;;;;;;;;;;;13.30;99.90;;;;;;8408477;28;20378;-77
2022/11/10 16:56:04;;;;;;;;;;;13.20;99.90;;;;;;8386027;28;20542;-76
2022/11/10 17:00:06;;;;;;;;;;;13.10;99.90;;;;;;8378948;28;19924;-77
2022/11/10 17:04:09;;;;;;;;;;;13.10;99.90;;;;;;8399036;28;19928;-77
2022/11/10 17:08:18;;;;;;;;;;;13.10;99.90;;;;;;8397069;28;20015;-77
2022/11/10 17:12:20;;;;;;;;;;;13.10;99.90;;;;;;8390837;28;20391;-76
2022/11/10 17:16:22;;;;;;;;;;;13.00;99.90;;;;;;8394077;28;19941;-77
2022/11/10 17:20:45;;;;;;;;;;;13.00;99.90;;;;;;8395130;28;19981;-77
2022/11/10 17:24:49;;;;;;;;;;;13.00;99.90;;;;;;8393418;28;20426;-77
2022/11/10 17:28:52;;;;;;;;;;;13.00;99.90;;;;;;8376355;28;19924;-77
2022/11/10 17:32:54;;;;;;;;;;;12.90;99.90;;;;;;8400774;28;20370;-77
2022/11/10 17:37:05;;;;;;;;;;;12.90;99.90;;;;;;8393335;28;19925;-76
2022/11/10 17:41:12;;;;;;;;;;;12.90;99.90;;;;;;8391727;28;19928;-76
2022/11/10 17:45:21;;;;;;;;;;;12.80;99.90;;;;;;8384331;28;20407;-77
2022/11/10 17:49:23;;;;;;;;;;;12.70;99.90;;;;;;8401814;28;20287;-76
2022/11/10 17:53:26;;;;;;;;;;;12.60;99.90;;;;;;8398779;28;19934;-77
2022/11/10 17:57:28;;;;;;;;;;;12.50;99.90;;;;;;8378495;28;20031;-77
2022/11/10 18:01:30;;;;;;;;;;;12.40;99.90;;;;;;8398977;28;19924;-76
2022/11/10 18:05:31;;;;;;;;;;;12.40;99.90;;;;;;8393726;28;20459;-77
2022/11/10 18:09:33;;;;;;;;;;;12.40;99.90;;;;;;8395796;28;19973;-76
2022/11/10 18:13:38;;;;;;;;;;;12.30;99.90;;;;;;8396213;28;20409;-77
2022/11/10 18:17:40;;;;;;;;;;;12.30;99.90;;;;;;8397326;28;19935;-76
2022/11/10 18:21:42;;;;;;;;;;;12.30;99.90;;;;;;8393189;28;19946;-76
2022/11/10 18:25:43;;;;;;;;;;;12.30;99.90;;;;;;8390490;28;19930;-76
2022/11/10 18:29:46;;;;;;;;;;;12.30;99.90;;;;;;8395125;28;20015;-76
2022/11/10 18:34:02;;;;;;;;;;;12.30;99.90;;;;;;8390563;28;20018;-77
2022/11/10 18:38:09;;;;;;;;;;;12.20;99.90;;;;;;8398244;28;19924;-76
2022/11/10 18:42:12;;;;;;;;;;;12.30;99.90;;;;;;8394585;28;19928;-76
2022/11/10 18:46:13;;;;;;;;;;;12.30;99.90;;;;;;8396690;28;19946;-76
2022/11/10 18:50:16;;;;;;;;;;;12.30;99.90;;;;;;8392230;28;20375;-77
2022/11/10 18:54:17;;;;;;;;;;;12.30;99.90;;;;;;8384775;28;19944;-77
2022/11/10 18:58:19;;;;;;;;;;;12.30;99.90;;;;;;8395198;28;19934;-76
2022/11/10 19:02:20;;;;;;;;;;;12.20;99.90;;;;;;8396073;28;20022;-76
2022/11/10 19:06:22;;;;;;;;;;;12.20;99.90;;;;;;8392195;28;19929;-77
2022/11/10 19:10:24;;;;;;;;;;;12.20;99.90;;;;;;8392810;28;19930;-76
2022/11/10 19:14:25;;;;;;;;;;;12.20;99.90;;;;;;8392241;28;19924;-77
2022/11/10 19:18:28;;;;;;;;;;;12.20;99.90;;;;;;8393649;28;19924;-77
2022/11/10 19:22:29;;;;;;;;;;;12.10;99.90;;;;;;8395022;28;19938;-76
2022/11/10 19:26:31;;;;;;;;;;;12.10;99.90;;;;;;8392522;28;19931;-76
2022/11/10 19:30:33;;;;;;;;;;;12.10;99.90;;;;;;8395148;28;20375;-76
2022/11/10 19:34:35;;;;;;;;;;;12.00;99.90;;;;;;8390598;28;20438;-76
2022/11/10 19:38:37;;;;;;;;;;;12.00;99.90;;;;;;8393623;28;19931;-77
2022/11/10 19:42:38;;;;;;;;;;;12.00;99.90;;;;;;8393884;28;20307;-76
2022/11/10 19:46:40;;;;;;;;;;;12.00;99.90;;;;;;8392568;28;19928;-77
2022/11/10 19:50:41;;;;;;;;;;;11.90;99.90;;;;;;8391467;28;19939;-77
2022/11/10 19:54:49;;;;;;;;;;;11.90;99.90;;;;;;8393672;28;19970;-76
2022/11/10 19:58:51;;;;;;;;;;;11.90;99.90;;;;;;8394791;28;19979;-76
2022/11/10 20:02:52;;;;;;;;;;;11.80;99.90;;;;;;8376728;28;19962;-77
2022/11/10 20:11:20;;;;;;;;;;;11.70;99.90;;;;;;8395391;28;19936;-76
2022/11/10 20:15:21;;;;;;;;;;;11.70;99.90;;;;;;8391494;28;20023;-76
2022/11/10 20:19:25;;;;;;;;;;;11.70;99.90;;;;;;8388853;28;20126;-77
2022/11/10 20:23:28;;;;;;;;;;;11.70;99.90;;;;;;8393711;28;20068;-77
2022/11/10 20:27:30;;;;;;;;;;;11.60;99.90;;;;;;8392987;28;19924;-76
2022/11/10 20:36:35;;;;;;;;;;;11.60;99.90;;;;;;8388044;28;19978;-77
2022/11/10 20:40:36;;;;;;;;;;;11.60;99.90;;;;;;8393740;28;20372;-77
2022/11/10 20:44:45;;;;;;;;;;;11.50;99.90;;;;;;8381538;28;20375;-77
2022/11/10 20:48:46;;;;;;;;;;;11.50;99.90;;;;;;8383655;28;19939;-76
2022/11/10 20:52:48;;;;;;;;;;;11.50;99.90;;;;;;8385689;28;19924;-77
2022/11/10 20:56:50;;;;;;;;;;;11.40;99.90;;;;;;8387873;28;20010;-76
2022/11/10 21:00:51;;;;;;;;;;;11.40;99.90;;;;;;8392850;28;19932;-76
2022/11/10 21:04:53;;;;;;;;;;;11.40;99.90;;;;;;8392095;28;19931;-77
2022/11/10 21:08:55;;;;;;;;;;;11.40;99.90;;;;;;8394333;28;19924;-76
2022/11/10 21:12:57;;;;;;;;;;;11.40;99.90;;;;;;8390924;28;20435;-77
2022/11/10 21:16:59;;;;;;;;;;;11.40;99.90;;;;;;8392869;28;20271;-77
2022/11/10 21:21:01;;;;;;;;;;;11.30;99.90;;;;;;8406211;28;19928;-76
2022/11/10 21:25:03;;;;;;;;;;;11.30;99.90;;;;;;8392419;28;19951;-77
2022/11/10 21:29:06;;;;;;;;;;;11.30;99.90;;;;;;8379467;28;20002;-77
2022/11/10 21:33:08;;;;;;;;;;;11.20;99.90;;;;;;8392085;28;19931;-76
2022/11/10 21:37:10;;;;;;;;;;;11.20;99.90;;;;;;8387863;28;20690;-76
2022/11/10 21:41:11;;;;;;;;;;;11.20;99.90;;;;;;8381695;28;20019;-77
2022/11/10 21:45:13;;;;;;;;;;;11.10;99.90;;;;;;8397401;28;19928;-76
2022/11/10 21:49:15;;;;;;;;;;;11.10;99.90;;;;;;8389280;28;19943;-76
2022/11/10 21:53:16;;;;;;;;;;;11.10;99.90;;;;;;8376420;28;19939;-77
2022/11/10 21:57:18;;;;;;;;;;;11.10;99.90;;;;;;8399024;28;20359;-77
2022/11/10 22:01:20;;;;;;;;;;;11.10;99.90;;;;;;8397205;28;19930;-76
2022/11/10 22:05:21;;;;;;;;;;;11.10;99.90;;;;;;8411514;28;19924;-77
2022/11/10 22:18:37;;;;;;;;;;;11.00;99.90;;;;;;8421156;28;19953;-76
2022/11/10 22:22:39;;;;;;;;;;;11.00;99.90;;;;;;8410913;28;19928;-76
2022/11/10 22:26:40;;;;;;;;;;;11.00;99.90;;;;;;8401709;28;19932;-76
2022/11/10 22:30:42;;;;;;;;;;;11.00;99.90;;;;;;8419960;28;19932;-76
2022/11/10 22:34:43;;;;;;;;;;;10.90;99.90;;;;;;8414119;28;19931;-76
2022/11/10 22:38:45;;;;;;;;;;;10.90;99.90;;;;;;8402781;28;19955;-77
2022/11/10 22:47:06;;;;;;;;;;;10.90;99.90;;;;;;8419779;28;20034;-77
2022/11/10 22:56:34;;;;;;;;;;;10.80;99.90;;;;;;8406992;28;20408;-76
2022/11/10 23:00:36;;;;;;;;;;;10.70;99.90;;;;;;8421942;28;19986;-76
2022/11/10 23:04:37;;;;;;;;;;;10.70;99.90;;;;;;8418503;28;20393;-77
2022/11/10 23:08:39;;;;;;;;;;;10.70;99.90;;;;;;8416117;28;19929;-77
2022/11/10 23:12:40;;;;;;;;;;;10.80;99.90;;;;;;8394033;28;20287;-77
2022/11/10 23:16:42;;;;;;;;;;;10.80;99.90;;;;;;8416310;28;20043;-76
2022/11/10 23:20:44;;;;;;;;;;;10.70;99.90;;;;;;8416859;28;19928;-77
2022/11/10 23:24:45;;;;;;;;;;;10.70;99.90;;;;;;8396355;28;19924;-77
2022/11/10 23:28:47;;;;;;;;;;;10.70;99.90;;;;;;8409427;28;19931;-76
2022/11/10 23:32:49;;;;;;;;;;;10.60;99.90;;;;;;8428078;28;19928;-77
2022/11/10 23:36:50;;;;;;;;;;;10.60;99.90;;;;;;8405505;28;20391;-76
2022/11/10 23:40:55;;;;;;;;;;;10.60;99.90;;;;;;8418555;28;19927;-76
2022/11/10 23:44:57;;;;;;;;;;;10.50;99.90;;;;;;8389015;28;19956;-76
2022/11/10 23:48:58;;;;;;;;;;;10.50;99.90;;;;;;8410258;28;19962;-76
2022/11/10 23:53:00;;;;;;;;;;;10.60;99.90;;;;;;8420669;28;19931;-76
2022/11/10 23:57:02;;;;;;;;;;;10.60;99.90;;;;;;8407541;28;19928;-77
